createdAt,value
2019-05-29T00:02:16.833Z,5.27
2019-05-29T00:04:44.417Z,8.33
2019-05-29T00:07:12.188Z,5.87
2019-05-29T00:09:39.830Z,6.33
2019-05-29T00:12:08.653Z,5.13
2019-05-29T00:14:36.801Z,6.37
2019-05-29T00:17:04.403Z,5.03
2019-05-29T00:19:31.987Z,5.67
2019-05-29T00:21:59.536Z,7.20
2019-05-29T00:24:27.090Z,6.67
2019-05-29T00:26:54.661Z,5.77
2019-05-29T00:29:22.215Z,5.30
2019-05-29T00:31:49.805Z,7.60
2019-05-29T00:34:17.408Z,6.47
2019-05-29T00:36:44.993Z,5.50
2019-05-29T00:39:12.761Z,7.17
2019-05-29T00:41:40.450Z,6.27
2019-05-29T00:44:09.078Z,7.80
2019-05-29T00:46:36.737Z,7.27
2019-05-29T00:49:04.322Z,6.87
2019-05-29T00:51:31.873Z,7.93
2019-05-29T00:53:59.462Z,7.00
2019-05-29T00:56:27.025Z,8.33
2019-05-29T00:58:54.592Z,9.07
2019-05-29T01:01:22.205Z,7.57
2019-05-29T01:03:50.068Z,6.07
2019-05-29T01:06:18.112Z,8.80
2019-05-29T01:08:45.752Z,6.83
2019-05-29T01:11:13.339Z,10.00
2019-05-29T01:13:40.974Z,7.63
2019-05-29T01:16:08.531Z,9.07
2019-05-29T01:18:36.271Z,7.70
2019-05-29T01:21:03.928Z,7.20
2019-05-29T01:23:31.471Z,10.43
2019-05-29T01:25:59.047Z,9.30
2019-05-29T01:28:26.620Z,7.43
2019-05-29T01:30:54.219Z,7.77
2019-05-29T01:33:23.462Z,10.23
2019-05-29T01:35:51.647Z,7.43
2019-05-29T01:38:19.296Z,9.83
2019-05-29T01:40:47.039Z,7.43
2019-05-29T01:43:15.353Z,8.43
2019-05-29T01:45:43.061Z,7.53
2019-05-29T01:48:10.652Z,7.37
2019-05-29T01:50:38.185Z,10.63
2019-05-29T01:53:05.752Z,8.87
2019-05-29T01:55:33.293Z,7.73
2019-05-29T01:58:00.871Z,10.30
2019-05-29T02:00:28.593Z,8.40
2019-05-29T02:02:56.188Z,7.13
2019-05-29T02:05:24.197Z,7.50
2019-05-29T02:07:51.804Z,7.27
2019-05-29T02:10:20.240Z,9.13
2019-05-29T02:12:48.133Z,10.90
2019-05-29T02:15:26.820Z,7.57
2019-05-29T02:17:46.839Z,9.30
2019-05-29T02:20:15.382Z,8.33
2019-05-29T02:22:42.956Z,8.30
2019-05-29T02:25:10.642Z,7.67
2019-05-29T02:27:38.217Z,6.87
2019-05-29T02:30:06.139Z,7.00
2019-05-29T02:32:33.677Z,7.47
2019-05-29T02:35:01.245Z,6.90
2019-05-29T02:37:29.057Z,9.57
2019-05-29T02:39:56.752Z,7.27
2019-05-29T02:42:25.116Z,7.30
2019-05-29T02:44:52.911Z,8.73
2019-05-29T02:47:21.666Z,7.07
2019-05-29T02:49:49.297Z,9.93
2019-05-29T02:52:16.885Z,7.27
2019-05-29T02:54:44.465Z,7.30
2019-05-29T02:57:12.021Z,8.07
2019-05-29T02:59:39.576Z,9.13
2019-05-29T03:02:07.348Z,8.07
2019-05-29T03:04:34.896Z,7.83
2019-05-29T03:07:02.454Z,8.07
2019-05-29T03:09:30.851Z,8.23
2019-05-29T03:12:00.211Z,9.93
2019-05-29T03:14:29.650Z,9.23
2019-05-29T03:16:57.471Z,8.10
2019-05-29T03:19:25.919Z,8.07
2019-05-29T03:21:53.662Z,8.93
2019-05-29T03:24:21.214Z,10.10
2019-05-29T03:26:48.779Z,7.63
2019-05-29T03:29:16.362Z,9.07
2019-05-29T03:31:47.766Z,8.43
2019-05-29T03:34:13.306Z,9.57
2019-05-29T03:36:47.178Z,8.47
2019-05-29T03:39:10.478Z,9.77
2019-05-29T03:41:39.000Z,9.93
2019-05-29T03:44:10.358Z,9.07
2019-05-29T03:46:43.026Z,9.20
2019-05-29T03:49:05.667Z,8.87
2019-05-29T03:51:35.172Z,9.80
2019-05-29T03:54:02.664Z,9.47
2019-05-29T03:56:30.701Z,10.40
2019-05-29T03:58:58.793Z,12.20
2019-05-29T04:01:26.794Z,8.17
2019-05-29T04:03:54.546Z,9.13
2019-05-29T04:06:22.202Z,10.83
2019-05-29T04:08:49.779Z,12.10
2019-05-29T04:11:17.415Z,12.33
2019-05-29T04:13:44.984Z,8.77
2019-05-29T04:16:14.149Z,8.77
2019-05-29T04:18:42.361Z,8.17
2019-05-29T04:21:10.747Z,8.97
2019-05-29T04:23:40.195Z,8.50
2019-05-29T04:26:11.382Z,7.73
2019-05-29T04:28:39.163Z,9.63
2019-05-29T04:31:06.690Z,10.37
2019-05-29T04:33:35.335Z,7.93
2019-05-29T04:36:04.250Z,8.00
2019-05-29T04:38:33.816Z,7.27
2019-05-29T04:41:01.572Z,10.33
2019-05-29T04:43:30.899Z,7.93
2019-05-29T04:45:58.524Z,8.10
2019-05-29T04:48:26.269Z,8.00
2019-05-29T04:50:53.959Z,8.57
2019-05-29T04:53:21.522Z,8.77
2019-05-29T04:55:49.099Z,8.20
2019-05-29T04:58:16.857Z,7.67
2019-05-29T05:00:58.183Z,8.23
2019-05-29T05:03:13.787Z,8.77
2019-05-29T05:05:41.368Z,10.53
2019-05-29T05:08:08.899Z,7.97
2019-05-29T05:10:38.309Z,10.77
2019-05-29T05:13:06.062Z,9.00
2019-05-29T05:15:34.300Z,9.50
2019-05-29T05:18:02.102Z,8.80
2019-05-29T05:20:29.956Z,9.63
2019-05-29T05:22:57.751Z,9.50
2019-05-29T05:25:25.360Z,10.83
2019-05-29T05:27:52.972Z,11.60
2019-05-29T05:30:20.650Z,12.50
2019-05-29T05:32:48.203Z,9.27
2019-05-29T05:35:15.781Z,10.50
2019-05-29T05:37:43.383Z,10.30
2019-05-29T05:40:11.054Z,11.73
2019-05-29T05:42:39.023Z,10.93
2019-05-29T05:45:06.835Z,10.27
2019-05-29T05:47:45.008Z,10.97
2019-05-29T05:50:04.411Z,10.10
2019-05-29T05:52:33.677Z,8.63
2019-05-29T05:55:01.405Z,12.37
2019-05-29T05:57:29.076Z,10.20
2019-05-29T05:59:56.588Z,11.50
2019-05-29T06:02:24.182Z,11.70
2019-05-29T06:04:51.757Z,10.33
2019-05-29T06:07:19.297Z,11.63
2019-05-29T06:09:46.861Z,17.60
2019-05-29T06:12:14.441Z,11.07
2019-05-29T06:14:42.752Z,10.50
2019-05-29T06:17:10.442Z,11.47
2019-05-29T06:19:38.963Z,13.43
2019-05-29T06:22:06.733Z,10.77
2019-05-29T06:24:35.019Z,12.50
2019-05-29T06:27:02.841Z,11.97
2019-05-29T06:29:30.442Z,11.63
2019-05-29T06:31:58.042Z,10.43
2019-05-29T06:34:25.658Z,11.60
2019-05-29T06:36:53.284Z,10.43
2019-05-29T06:39:20.903Z,11.23
2019-05-29T06:41:48.468Z,12.33
2019-05-29T06:44:16.684Z,11.13
2019-05-29T06:46:45.384Z,10.70
2019-05-29T06:49:13.127Z,11.57
2019-05-29T06:51:41.357Z,11.57
2019-05-29T06:54:09.066Z,13.50
2019-05-29T06:56:37.625Z,13.23
2019-05-29T06:59:05.327Z,11.40
2019-05-29T07:01:32.989Z,11.17
2019-05-29T07:04:11.387Z,10.57
2019-05-29T07:06:30.240Z,10.97
2019-05-29T07:08:57.802Z,11.47
2019-05-29T07:11:25.408Z,12.83
2019-05-29T07:13:53.041Z,11.10
2019-05-29T07:16:20.557Z,11.93
2019-05-29T07:19:23.262Z,11.60
2019-05-29T07:21:17.627Z,10.43
2019-05-29T07:23:46.667Z,10.23
2019-05-29T07:26:14.560Z,15.93
2019-05-29T07:29:03.438Z,12.33
2019-05-29T07:31:11.490Z,10.70
2019-05-29T07:33:39.054Z,11.43
2019-05-29T07:36:06.651Z,12.30
2019-05-29T07:38:34.209Z,12.40
2019-05-29T07:41:01.763Z,11.00
2019-05-29T07:43:29.565Z,11.83
2019-05-29T07:45:57.152Z,10.80
2019-05-29T07:48:24.822Z,9.00
2019-05-29T07:51:06.208Z,10.73
2019-05-29T07:53:22.047Z,10.23
2019-05-29T07:55:49.606Z,9.73
2019-05-29T07:58:17.171Z,9.70
2019-05-29T08:01:06.704Z,9.27
2019-05-29T08:03:14.113Z,8.70
2019-05-29T08:05:46.047Z,9.20
2019-05-29T08:08:11.309Z,8.60
2019-05-29T08:10:39.969Z,8.50
2019-05-29T08:13:07.726Z,10.60
2019-05-29T08:15:51.208Z,8.47
2019-05-29T08:18:04.639Z,8.37
2019-05-29T08:20:32.227Z,8.40
2019-05-29T08:22:59.799Z,10.43
2019-05-29T08:25:27.389Z,10.13
2019-05-29T08:27:54.941Z,11.00
2019-05-29T08:30:22.526Z,10.30
2019-05-29T08:32:51.291Z,9.97
2019-05-29T08:35:18.998Z,10.17
2019-05-29T08:37:47.024Z,10.03
2019-05-29T08:40:16.137Z,10.37
2019-05-29T08:42:43.715Z,10.90
2019-05-29T08:45:11.698Z,12.90
2019-05-29T08:47:39.236Z,9.63
2019-05-29T08:50:17.966Z,10.43
2019-05-29T08:52:36.364Z,11.33
2019-05-29T08:55:04.337Z,15.93
2019-05-29T08:57:31.873Z,11.00
2019-05-29T08:59:59.494Z,10.30
2019-05-29T09:02:27.036Z,11.27
2019-05-29T09:04:54.995Z,10.93
2019-05-29T09:07:22.676Z,10.73
2019-05-29T09:09:51.247Z,10.00
2019-05-29T09:12:19.419Z,6.47
2019-05-29T09:14:47.016Z,5.33
2019-05-29T09:17:16.458Z,5.83
2019-05-29T09:19:44.241Z,5.10
2019-05-29T09:22:12.140Z,5.23
2019-05-29T09:24:40.805Z,4.97
2019-05-29T09:27:08.377Z,5.23
2019-05-29T09:29:36.104Z,6.57
2019-05-29T09:32:03.677Z,5.20
2019-05-29T09:34:31.234Z,4.37
2019-05-29T09:36:59.141Z,5.27
2019-05-29T09:39:26.782Z,4.90
2019-05-29T09:41:54.340Z,4.43
2019-05-29T09:44:33.882Z,3.70
2019-05-29T09:46:51.255Z,4.73
2019-05-29T09:49:20.193Z,3.93
2019-05-29T09:51:47.914Z,3.47
2019-05-29T09:54:15.507Z,3.30
2019-05-29T09:56:43.023Z,2.83
2019-05-29T09:59:10.601Z,2.50
2019-05-29T10:01:38.882Z,2.60
2019-05-29T10:04:06.821Z,3.13
2019-05-29T10:06:34.367Z,4.30
2019-05-29T10:09:02.040Z,3.50
2019-05-29T10:11:29.780Z,2.87
2019-05-29T10:13:58.597Z,3.03
2019-05-29T10:16:26.437Z,2.87
2019-05-29T10:18:54.475Z,2.53
2019-05-29T10:21:38.538Z,1.93
2019-05-29T10:23:52.548Z,3.50
2019-05-29T10:26:20.152Z,3.17
2019-05-29T10:29:02.580Z,3.03
2019-05-29T10:31:17.114Z,1.80
2019-05-29T10:33:46.072Z,3.27
2019-05-29T10:36:13.774Z,2.03
2019-05-29T10:38:42.367Z,1.53
2019-05-29T10:41:10.214Z,1.67
2019-05-29T10:43:37.818Z,1.60
2019-05-29T10:46:05.383Z,1.53
2019-05-29T10:48:33.021Z,2.10
2019-05-29T10:51:00.628Z,1.90
2019-05-29T10:53:28.259Z,1.40
2019-05-29T10:55:55.873Z,1.50
2019-05-29T10:58:23.433Z,1.47
2019-05-29T11:00:51.295Z,2.50
2019-05-29T11:03:18.918Z,1.33
2019-05-29T11:05:47.458Z,1.33
2019-05-29T11:08:15.172Z,2.37
2019-05-29T11:10:42.779Z,1.50
2019-05-29T11:13:10.342Z,1.57
2019-05-29T11:15:37.891Z,1.50
2019-05-29T11:18:05.497Z,2.43
2019-05-29T11:20:33.041Z,1.60
2019-05-29T11:23:00.638Z,1.50
2019-05-29T11:25:28.518Z,2.47
2019-05-29T11:27:56.698Z,2.40
2019-05-29T11:30:24.665Z,2.07
2019-05-29T11:32:55.003Z,3.40
2019-05-29T11:35:22.031Z,2.07
2019-05-29T11:37:50.417Z,1.67
2019-05-29T11:40:18.482Z,1.47
2019-05-29T11:42:46.037Z,1.33
2019-05-29T11:45:14.244Z,1.97
2019-05-29T11:47:41.831Z,2.07
2019-05-29T11:50:19.298Z,1.60
2019-05-29T11:52:42.929Z,2.10
2019-05-29T11:55:10.067Z,1.80
2019-05-29T11:57:39.721Z,2.20
2019-05-29T12:00:19.049Z,1.30
2019-05-29T12:02:37.373Z,1.50
2019-05-29T12:05:06.128Z,1.80
2019-05-29T12:07:33.711Z,2.17
2019-05-29T12:10:04.581Z,1.20
2019-05-29T12:12:30.687Z,1.47
2019-05-29T12:15:08.039Z,1.70
2019-05-29T12:17:27.848Z,1.37
2019-05-29T12:19:56.067Z,1.73
2019-05-29T12:22:24.348Z,9.07
2019-05-29T12:24:52.522Z,1.77
2019-05-29T12:27:20.182Z,1.90
2019-05-29T12:29:47.759Z,3.60
2019-05-29T12:32:16.087Z,2.63
2019-05-29T12:34:53.109Z,2.60
2019-05-29T12:37:13.321Z,2.40
2019-05-29T12:39:40.914Z,3.03
2019-05-29T12:42:08.707Z,2.20
2019-05-29T12:44:36.870Z,3.30
2019-05-29T12:47:05.246Z,3.17
2019-05-29T12:49:32.906Z,4.07
2019-05-29T12:52:01.521Z,2.50
2019-05-29T12:54:29.495Z,2.80
2019-05-29T12:56:57.825Z,2.13
2019-05-29T12:59:25.555Z,2.07
2019-05-29T13:01:54.371Z,2.07
2019-05-29T13:04:22.132Z,2.30
2019-05-29T13:06:49.687Z,2.00
2019-05-29T13:09:17.292Z,2.00
2019-05-29T13:11:44.836Z,3.37
2019-05-29T13:14:12.571Z,2.10
2019-05-29T13:16:40.126Z,2.60
2019-05-29T13:19:07.769Z,2.80
2019-05-29T13:21:35.428Z,2.83
2019-05-29T13:24:05.322Z,2.70
2019-05-29T13:26:32.368Z,2.03
2019-05-29T13:28:59.974Z,2.50
2019-05-29T13:31:27.547Z,1.63
2019-05-29T13:33:55.635Z,2.67
2019-05-29T13:36:23.262Z,2.30
2019-05-29T13:38:50.847Z,1.90
2019-05-29T13:41:18.454Z,2.70
2019-05-29T13:43:46.036Z,2.23
2019-05-29T13:46:13.624Z,2.00
2019-05-29T13:48:41.184Z,1.70
2019-05-29T13:51:08.760Z,2.23
2019-05-29T13:53:36.333Z,1.80
2019-05-29T13:56:04.263Z,2.50
2019-05-29T13:58:31.847Z,1.87
2019-05-29T14:01:00.784Z,1.67
2019-05-29T14:03:28.807Z,1.90
2019-05-29T14:05:56.446Z,2.70
2019-05-29T14:08:24.017Z,2.13
2019-05-29T14:10:51.588Z,1.77
2019-05-29T14:13:19.209Z,1.77
2019-05-29T14:15:46.798Z,1.63
2019-05-29T14:18:14.354Z,2.83
2019-05-29T14:20:41.958Z,1.70
2019-05-29T14:23:09.727Z,3.87
2019-05-29T14:25:37.387Z,1.80
2019-05-29T14:28:04.991Z,1.90
2019-05-29T14:30:32.570Z,2.30
2019-05-29T14:33:00.134Z,1.83
2019-05-29T14:35:27.733Z,6.23
2019-05-29T14:37:55.282Z,2.80
2019-05-29T14:40:22.885Z,2.30
2019-05-29T14:42:50.479Z,1.90
2019-05-29T14:45:18.161Z,2.03
2019-05-29T14:47:45.782Z,4.87
2019-05-29T14:50:13.607Z,1.67
2019-05-29T14:52:41.162Z,1.67
2019-05-29T14:55:11.417Z,2.73
2019-05-29T14:57:38.237Z,2.10
2019-05-29T15:00:18.874Z,2.80
2019-05-29T15:02:36.400Z,2.80
2019-05-29T15:05:05.503Z,1.90
2019-05-29T15:07:33.258Z,3.63
2019-05-29T15:10:00.838Z,3.97
2019-05-29T15:12:28.426Z,2.20
2019-05-29T15:14:55.988Z,4.57
2019-05-29T15:17:23.545Z,2.23
2019-05-29T15:19:51.124Z,3.10
2019-05-29T15:22:18.686Z,4.60
2019-05-29T15:25:01.546Z,2.00
2019-05-29T15:27:16.218Z,2.30
2019-05-29T15:29:43.945Z,2.10
2019-05-29T15:32:12.387Z,2.63
2019-05-29T15:34:39.997Z,2.10
2019-05-29T15:37:11.483Z,3.20
2019-05-29T15:39:36.953Z,3.47
2019-05-29T15:42:04.618Z,2.13
2019-05-29T15:44:32.362Z,3.00
2019-05-29T15:46:59.866Z,6.30
2019-05-29T15:49:27.497Z,3.27
2019-05-29T15:51:55.109Z,3.50
2019-05-29T15:54:22.690Z,6.50
2019-05-29T15:56:50.272Z,2.53
2019-05-29T15:59:19.152Z,2.53
2019-05-29T16:01:46.823Z,2.17
2019-05-29T16:04:15.775Z,2.37
2019-05-29T16:06:43.525Z,2.20
2019-05-29T16:09:12.125Z,2.33
2019-05-29T16:11:39.785Z,2.53
2019-05-29T16:14:08.815Z,2.70
2019-05-29T16:16:36.570Z,2.60
2019-05-29T16:19:04.365Z,3.20
2019-05-29T16:21:32.158Z,2.40
2019-05-29T16:23:59.733Z,2.67
2019-05-29T16:26:27.294Z,2.27
2019-05-29T16:28:54.884Z,4.90
2019-05-29T16:31:23.013Z,3.30
2019-05-29T16:33:50.807Z,2.27
2019-05-29T16:36:18.651Z,3.50
2019-05-29T16:38:46.428Z,3.23
2019-05-29T16:41:13.999Z,2.87
2019-05-29T16:43:41.612Z,3.03
2019-05-29T16:46:09.165Z,2.30
2019-05-29T16:48:36.750Z,2.57
2019-05-29T16:51:04.328Z,3.17
2019-05-29T16:53:32.919Z,2.50
2019-05-29T16:56:00.566Z,2.37
2019-05-29T16:58:28.232Z,2.57
2019-05-29T17:00:55.835Z,3.37
2019-05-29T17:03:23.834Z,2.53
2019-05-29T17:05:51.412Z,3.17
2019-05-29T17:08:19.997Z,4.40
2019-05-29T17:10:48.159Z,2.87
2019-05-29T17:13:16.617Z,3.97
2019-05-29T17:15:44.363Z,3.73
2019-05-29T17:18:11.992Z,2.90
2019-05-29T17:20:41.363Z,2.90
2019-05-29T17:23:08.942Z,3.90
2019-05-29T17:25:36.524Z,3.23
2019-05-29T17:28:05.084Z,3.57
2019-05-29T17:30:32.782Z,3.83
2019-05-29T17:33:00.377Z,5.57
2019-05-29T17:35:27.958Z,3.83
2019-05-29T17:37:55.720Z,4.27
2019-05-29T17:40:23.586Z,10.00
2019-05-29T17:42:51.299Z,3.30
2019-05-29T17:45:21.538Z,3.97
2019-05-29T17:47:48.407Z,3.57
2019-05-29T17:50:19.864Z,3.60
2019-05-29T17:52:45.695Z,5.73
2019-05-29T17:55:13.501Z,4.50
2019-05-29T17:57:41.063Z,3.53
2019-05-29T18:00:09.774Z,3.37
2019-05-29T18:02:50.773Z,5.40
2019-05-29T18:05:06.895Z,3.47
2019-05-29T18:07:34.637Z,3.97
2019-05-29T18:10:02.300Z,3.30
2019-05-29T18:12:29.885Z,3.60
2019-05-29T18:14:57.470Z,4.13
2019-05-29T18:17:25.505Z,3.33
2019-05-29T18:19:53.128Z,4.90
2019-05-29T18:22:21.625Z,5.73
2019-05-29T18:24:49.312Z,3.27
2019-05-29T18:27:17.919Z,4.07
2019-05-29T18:29:45.787Z,3.03
2019-05-29T18:32:13.341Z,5.83
2019-05-29T18:34:40.922Z,4.67
2019-05-29T18:37:08.514Z,3.00
2019-05-29T18:39:36.077Z,3.67
2019-05-29T18:42:03.758Z,4.87
2019-05-29T18:44:31.507Z,3.13
2019-05-29T18:46:59.073Z,5.57
2019-05-29T18:49:26.625Z,3.57
2019-05-29T18:51:54.229Z,5.53
2019-05-29T18:54:21.811Z,3.83
2019-05-29T18:57:13.719Z,3.60
2019-05-29T18:59:18.795Z,3.43
2019-05-29T19:01:46.437Z,3.70
2019-05-29T19:04:13.983Z,5.23
2019-05-29T19:06:41.742Z,4.20
2019-05-29T19:09:09.337Z,4.40
2019-05-29T19:11:36.917Z,3.40
2019-05-29T19:14:06.117Z,6.67
2019-05-29T19:16:33.706Z,3.77
2019-05-29T19:19:01.303Z,6.43
2019-05-29T19:21:28.864Z,4.43
2019-05-29T19:23:56.469Z,5.27
2019-05-29T19:26:24.761Z,3.27
2019-05-29T19:28:52.404Z,3.40
2019-05-29T19:31:19.957Z,4.47
2019-05-29T19:33:47.553Z,5.17
2019-05-29T19:36:15.172Z,5.40
2019-05-29T19:38:42.806Z,6.27
2019-05-29T19:41:10.402Z,4.43
2019-05-29T19:43:37.975Z,4.60
2019-05-29T19:46:05.546Z,3.40
2019-05-29T19:48:33.131Z,3.93
2019-05-29T19:51:00.724Z,4.53
2019-05-29T19:53:29.425Z,3.97
2019-05-29T19:55:57.406Z,4.10
2019-05-29T19:58:25.587Z,3.90
2019-05-29T20:00:53.612Z,5.73
2019-05-29T20:03:21.175Z,3.97
2019-05-29T20:05:48.739Z,5.20
2019-05-29T20:08:16.343Z,5.43
2019-05-29T20:10:43.928Z,4.37
2019-05-29T20:13:11.508Z,5.30
2019-05-29T20:15:39.070Z,4.53
2019-05-29T20:18:06.701Z,3.80
2019-05-29T20:20:34.576Z,5.30
2019-05-29T20:23:02.187Z,4.90
2019-05-29T20:25:30.760Z,5.37
2019-05-29T20:28:06.430Z,6.73
2019-05-29T20:30:27.764Z,8.23
2019-05-29T20:32:55.389Z,5.77
2019-05-29T20:35:22.966Z,5.87
2019-05-29T20:37:50.603Z,5.90
2019-05-29T20:40:18.558Z,6.30
2019-05-29T20:42:46.169Z,8.77
2019-05-29T20:45:14.811Z,7.07
2019-05-29T20:47:42.363Z,10.50
2019-05-29T20:50:11.908Z,4.93
2019-05-29T20:52:39.638Z,5.07
2019-05-29T20:55:08.529Z,9.53
2019-05-29T20:57:36.154Z,5.37
2019-05-29T21:00:04.937Z,5.80
2019-05-29T21:02:32.480Z,5.60
2019-05-29T21:05:00.184Z,6.83
2019-05-29T21:07:27.733Z,6.30
2019-05-29T21:09:55.333Z,6.23
2019-05-29T21:12:23.092Z,6.57
2019-05-29T21:14:50.676Z,6.57
2019-05-29T21:17:18.282Z,7.07
2019-05-29T21:19:46.089Z,5.23
2019-05-29T21:22:13.695Z,6.30
2019-05-29T21:24:41.271Z,5.20
2019-05-29T21:27:08.859Z,8.53
2019-05-29T21:29:37.214Z,5.40
2019-05-29T21:32:04.870Z,6.50
2019-05-29T21:34:32.842Z,6.27
2019-05-29T21:37:00.440Z,8.30
2019-05-29T21:39:28.005Z,6.70
2019-05-29T21:41:55.583Z,10.07
2019-05-29T21:44:23.158Z,8.03
2019-05-29T21:46:50.756Z,7.90
2019-05-29T21:49:18.562Z,7.67
2019-05-29T21:51:46.169Z,8.90
2019-05-29T21:54:13.735Z,7.77
2019-05-29T21:56:41.644Z,8.27
2019-05-29T21:59:09.145Z,9.07
2019-05-29T22:01:37.916Z,8.70
2019-05-29T22:04:05.745Z,8.57
2019-05-29T22:06:33.316Z,10.63
2019-05-29T22:09:00.913Z,8.80
2019-05-29T22:11:28.455Z,7.90
2019-05-29T22:13:56.554Z,9.87
2019-05-29T22:16:24.181Z,11.27
2019-05-29T22:18:52.776Z,8.80
2019-05-29T22:21:20.722Z,11.90
2019-05-29T22:23:48.271Z,9.23
2019-05-29T22:26:15.830Z,9.50
2019-05-29T22:28:43.399Z,9.73
2019-05-29T22:31:10.945Z,11.10
2019-05-29T22:33:38.687Z,9.43
2019-05-29T22:36:06.243Z,10.33
2019-05-29T22:38:33.843Z,9.57
2019-05-29T22:41:01.881Z,10.63
2019-05-29T22:43:29.577Z,9.57
2019-05-29T22:45:57.637Z,10.70
2019-05-29T22:48:25.307Z,9.57
2019-05-29T22:50:53.826Z,9.47
2019-05-29T22:53:21.564Z,12.33
2019-05-29T22:55:49.041Z,9.73
2019-05-29T22:58:16.621Z,10.70
2019-05-29T23:00:44.223Z,10.43
2019-05-29T23:03:11.799Z,9.57
2019-05-29T23:05:39.384Z,11.63
2019-05-29T23:08:06.940Z,9.77
2019-05-29T23:10:34.516Z,10.23
2019-05-29T23:13:04.387Z,11.57
2019-05-29T23:15:31.633Z,11.17
2019-05-29T23:18:00.539Z,13.30
2019-05-29T23:20:28.340Z,12.07
2019-05-29T23:22:56.501Z,11.93
2019-05-29T23:25:24.114Z,12.73
2019-05-29T23:27:52.804Z,13.33
2019-05-29T23:30:20.628Z,13.07
2019-05-29T23:32:48.158Z,13.37
2019-05-29T23:35:15.812Z,14.57
2019-05-29T23:37:43.386Z,15.57
2019-05-29T23:40:12.084Z,13.57
2019-05-29T23:42:39.669Z,13.57
2019-05-29T23:45:08.533Z,12.30
2019-05-29T23:47:36.084Z,13.43
2019-05-29T23:50:04.603Z,13.17
2019-05-29T23:52:32.175Z,13.93
2019-05-29T23:54:59.896Z,15.33
2019-05-29T23:57:27.653Z,17.30
